createdAt,value
2022-11-02T00:00:36.591Z,1009.2
2022-11-02T00:01:40.893Z,1009.2
2022-11-02T00:02:44.249Z,1009.2
2022-11-02T00:03:47.627Z,1009.1
2022-11-02T00:04:50.776Z,1009.1
2022-11-02T00:05:54.197Z,1009.1
2022-11-02T00:06:57.184Z,1009.1
2022-11-02T00:08:00.055Z,1009.1
2022-11-02T00:09:03.426Z,1009.1
2022-11-02T00:10:06.941Z,1009.1
2022-11-02T00:11:09.777Z,1009.2
2022-11-02T00:12:12.669Z,1009.2
2022-11-02T00:13:15.464Z,1009.1
2022-11-02T00:14:17.706Z,1009.1
2022-11-02T00:15:20.838Z,1009.1
2022-11-02T00:16:23.363Z,1009.1
2022-11-02T00:17:27.557Z,1009.1
2022-11-02T00:18:30.153Z,1009.1
2022-11-02T00:19:33.522Z,1009.1
2022-11-02T00:20:36.864Z,1009.1
2022-11-02T00:21:39.117Z,1009.1
2022-11-02T00:22:41.554Z,1009.1
2022-11-02T00:23:45.046Z,1009.1
2022-11-02T00:24:47.878Z,1009.1
2022-11-02T00:25:50.741Z,1009
2022-11-02T00:26:54.374Z,1009.1
2022-11-02T00:27:57.891Z,1009
2022-11-02T00:29:00.978Z,1009
2022-11-02T00:30:03.590Z,1009
2022-11-02T00:31:06.878Z,1009
2022-11-02T00:32:10.273Z,1009
2022-11-02T00:33:14.376Z,1009
2022-11-02T00:34:17.096Z,1009
2022-11-02T00:35:19.888Z,1009
2022-11-02T00:36:22.870Z,1009
2022-11-02T00:37:26.117Z,1009
2022-11-02T00:38:29.206Z,1009
2022-11-02T00:39:32.625Z,1009
2022-11-02T00:40:34.509Z,1009
2022-11-02T00:41:37.505Z,1009
2022-11-02T00:42:40.490Z,1009
2022-11-02T00:43:43.527Z,1008.9
2022-11-02T00:44:45.760Z,1008.9
2022-11-02T00:45:48.893Z,1009
2022-11-02T00:46:51.895Z,1008.9
2022-11-02T00:47:54.708Z,1009
2022-11-02T00:48:59.484Z,1008.9
2022-11-02T00:50:02.942Z,1008.9
2022-11-02T00:51:05.471Z,1008.9
2022-11-02T00:52:08.347Z,1008.9
2022-11-02T00:53:11.536Z,1008.9
2022-11-02T00:54:15.169Z,1008.9
2022-11-02T00:55:18.525Z,1008.9
2022-11-02T00:56:21.426Z,1008.9
2022-11-02T00:57:24.489Z,1008.9
2022-11-02T00:58:27.400Z,1008.9
2022-11-02T00:59:30.396Z,1008.9
2022-11-02T01:00:33.206Z,1008.9
2022-11-02T01:01:35.672Z,1008.9
2022-11-02T01:02:39.804Z,1008.9
2022-11-02T01:03:44.161Z,1008.9
2022-11-02T01:04:48.311Z,1008.9
2022-11-02T01:05:51.202Z,1008.8
2022-11-02T01:06:53.935Z,1008.9
2022-11-02T01:07:56.660Z,1008.8
2022-11-02T01:08:59.502Z,1008.8
2022-11-02T01:10:02.860Z,1008.8
2022-11-02T01:11:05.736Z,1008.8
2022-11-02T01:12:07.899Z,1008.8
2022-11-02T01:13:11.309Z,1008.8
2022-11-02T01:14:14.394Z,1008.8
2022-11-02T01:15:17.328Z,1008.8
2022-11-02T01:16:20.119Z,1008.7
2022-11-02T01:17:22.434Z,1008.7
2022-11-02T01:18:25.444Z,1008.7
2022-11-02T01:19:28.844Z,1008.7
2022-11-02T01:20:33.020Z,1008.7
2022-11-02T01:21:35.737Z,1008.7
2022-11-02T01:22:38.690Z,1008.7
2022-11-02T01:23:42.104Z,1008.7
2022-11-02T01:24:45.234Z,1008.7
2022-11-02T01:25:48.717Z,1008.7
2022-11-02T01:26:52.416Z,1008.7
2022-11-02T01:27:55.605Z,1008.7
2022-11-02T01:28:58.597Z,1008.7
2022-11-02T01:30:01.597Z,1008.6
2022-11-02T01:31:04.646Z,1008.6
2022-11-02T01:32:07.995Z,1008.6
2022-11-02T01:33:10.584Z,1008.6
2022-11-02T01:34:13.975Z,1008.6
2022-11-02T01:35:16.700Z,1008.6
2022-11-02T01:37:24.476Z,1008.6
2022-11-02T01:38:27.578Z,1008.6
2022-11-02T01:39:30.288Z,1008.7
2022-11-02T01:40:33.009Z,1008.6
2022-11-02T01:41:36.272Z,1008.6
2022-11-02T01:42:38.559Z,1008.6
2022-11-02T01:43:41.631Z,1008.6
2022-11-02T01:44:44.704Z,1008.6
2022-11-02T01:45:46.873Z,1008.6
2022-11-02T01:46:49.944Z,1008.6
2022-11-02T01:47:52.389Z,1008.6
2022-11-02T01:48:55.561Z,1008.6
2022-11-02T01:49:58.926Z,1008.5
2022-11-02T01:51:01.792Z,1008.5
2022-11-02T01:52:05.833Z,1008.4
2022-11-02T01:53:08.960Z,1008.5
2022-11-02T01:54:12.014Z,1008.4
2022-11-02T01:55:14.527Z,1008.4
2022-11-02T01:56:16.900Z,1008.4
2022-11-02T01:57:19.891Z,1008.3
2022-11-02T01:58:22.758Z,1008.3
2022-11-02T01:59:25.556Z,1008.3
2022-11-02T02:00:28.273Z,1008.4
2022-11-02T02:01:32.465Z,1008.4
2022-11-02T02:02:36.776Z,1008.4
2022-11-02T02:03:40.183Z,1008.4
2022-11-02T02:04:43.916Z,1008.4
2022-11-02T02:05:47.070Z,1008.5
2022-11-02T02:06:49.887Z,1008.5
2022-11-02T02:07:53.998Z,1008.4
2022-11-02T02:08:56.530Z,1008.5
2022-11-02T02:09:59.507Z,1008.4
2022-11-02T02:11:02.584Z,1008.4
2022-11-02T02:12:05.655Z,1008.4
2022-11-02T02:13:08.482Z,1008.4
2022-11-02T02:14:12.013Z,1008.4
2022-11-02T02:15:15.358Z,1008.4
2022-11-02T02:16:17.599Z,1008.4
2022-11-02T02:17:19.514Z,1008.4
2022-11-02T02:18:22.383Z,1008.4
2022-11-02T02:19:25.270Z,1008.4
2022-11-02T02:20:28.449Z,1008.3
2022-11-02T02:21:31.607Z,1008.3
2022-11-02T02:22:34.351Z,1008.4
2022-11-02T02:23:38.462Z,1008.4
2022-11-02T02:24:41.142Z,1008.3
2022-11-02T02:25:44.206Z,1008.3
2022-11-02T02:26:47.172Z,1008.3
2022-11-02T02:27:49.399Z,1008.3
2022-11-02T02:28:52.466Z,1008.3
2022-11-02T02:29:55.658Z,1008.3
2022-11-02T02:30:59.127Z,1008.3
2022-11-02T02:32:01.462Z,1008.3
2022-11-02T02:33:05.004Z,1008.2
2022-11-02T02:34:08.357Z,1008.2
2022-11-02T02:35:11.151Z,1008.2
2022-11-02T02:36:13.395Z,1008.3
2022-11-02T02:37:15.941Z,1008.3
2022-11-02T02:38:20.039Z,1008.3
2022-11-02T02:39:24.162Z,1008.2
2022-11-02T02:40:27.833Z,1008.2
2022-11-02T02:41:30.981Z,1008.2
2022-11-02T02:42:33.701Z,1008.2
2022-11-02T02:43:36.698Z,1008.2
2022-11-02T02:44:39.143Z,1008.1
2022-11-02T02:45:42.212Z,1008.1
2022-11-02T02:46:47.738Z,1008.1
2022-11-02T02:47:58.777Z,1008.1
2022-11-02T02:49:01.485Z,1008.1
2022-11-02T02:50:04.082Z,1008.1
2022-11-02T02:51:06.354Z,1008.1
2022-11-02T02:52:09.501Z,1008.1
2022-11-02T02:53:12.937Z,1008.1
2022-11-02T02:54:16.233Z,1008.1
2022-11-02T02:55:20.483Z,1008.1
2022-11-02T02:56:23.907Z,1008.1
2022-11-02T02:57:26.993Z,1008.1
2022-11-02T02:58:30.431Z,1008.1
2022-11-02T02:59:32.872Z,1008.1
2022-11-02T03:00:35.605Z,1008.1
2022-11-02T03:01:38.888Z,1008
2022-11-02T03:02:42.946Z,1008
2022-11-02T03:03:46.025Z,1008
2022-11-02T03:04:49.002Z,1008.1
2022-11-02T03:05:52.148Z,1008
2022-11-02T03:06:54.971Z,1008
2022-11-02T03:07:58.068Z,1008
2022-11-02T03:09:00.958Z,1008
2022-11-02T03:10:04.772Z,1008
2022-11-02T03:11:08.843Z,1008
2022-11-02T03:12:11.832Z,1008
2022-11-02T03:13:14.433Z,1008
2022-11-02T03:14:17.726Z,1008
2022-11-02T03:15:20.736Z,1008
2022-11-02T03:16:23.353Z,1008
2022-11-02T03:17:26.499Z,1008.1
2022-11-02T03:18:29.429Z,1008
2022-11-02T03:19:31.958Z,1008
2022-11-02T03:20:35.301Z,1008
2022-11-02T03:21:39.111Z,1008.1
2022-11-02T03:22:42.104Z,1008
2022-11-02T03:23:45.012Z,1008
2022-11-02T03:24:47.548Z,1008
2022-11-02T03:25:50.009Z,1008
2022-11-02T03:26:54.190Z,1008
2022-11-02T03:27:57.531Z,1008
2022-11-02T03:29:01.165Z,1008
2022-11-02T03:30:03.957Z,1008
2022-11-02T03:31:06.479Z,1008
2022-11-02T03:32:08.654Z,1008
2022-11-02T03:33:12.042Z,1008
2022-11-02T03:34:15.487Z,1008
2022-11-02T03:35:18.620Z,1008
2022-11-02T03:36:21.435Z,1008
2022-11-02T03:37:24.309Z,1008
2022-11-02T03:38:27.388Z,1008
2022-11-02T03:39:30.124Z,1007.9
2022-11-02T03:40:33.747Z,1007.9
2022-11-02T03:41:36.556Z,1007.9
2022-11-02T03:42:40.744Z,1007.9
2022-11-02T03:43:43.811Z,1007.8
2022-11-02T03:44:46.537Z,1007.8
2022-11-02T03:45:49.268Z,1007.8
2022-11-02T03:46:52.371Z,1007.8
2022-11-02T03:47:55.176Z,1007.7
2022-11-02T03:48:57.977Z,1007.7
2022-11-02T03:50:02.351Z,1007.7
2022-11-02T03:51:05.051Z,1007.8
2022-11-02T03:52:08.321Z,1007.8
2022-11-02T03:53:10.763Z,1007.8
2022-11-02T03:54:13.913Z,1007.8
2022-11-02T03:55:16.448Z,1007.8
2022-11-02T03:56:18.385Z,1007.9
2022-11-02T03:57:21.111Z,1007.8
2022-11-02T03:58:25.326Z,1007.8
2022-11-02T03:59:28.767Z,1007.7
2022-11-02T04:00:31.365Z,1007.8
2022-11-02T04:01:34.099Z,1007.7
2022-11-02T04:02:37.459Z,1007.8
2022-11-02T04:03:40.584Z,1007.8
2022-11-02T04:04:44.097Z,1007.8
2022-11-02T04:05:46.898Z,1007.9
2022-11-02T04:06:50.048Z,1007.8
2022-11-02T04:07:59.320Z,1007.8
2022-11-02T04:09:01.818Z,1007.8
2022-11-02T04:10:04.554Z,1007.8
2022-11-02T04:11:06.993Z,1007.8
2022-11-02T04:12:09.511Z,1007.8
2022-11-02T04:13:12.328Z,1008
2022-11-02T04:14:16.448Z,1007.9
2022-11-02T04:15:19.508Z,1007.8
2022-11-02T04:16:28.544Z,1007.8
2022-11-02T04:18:34.229Z,1007.9
2022-11-02T04:19:37.455Z,1007.9
2022-11-02T04:20:40.711Z,1007.9
2022-11-02T04:21:43.507Z,1007.8
2022-11-02T04:22:46.581Z,1007.8
2022-11-02T04:23:49.459Z,1007.8
2022-11-02T04:24:51.972Z,1007.8
2022-11-02T04:25:54.543Z,1007.9
2022-11-02T04:26:57.640Z,1007.9
2022-11-02T04:28:00.536Z,1007.8
2022-11-02T04:29:04.727Z,1007.8
2022-11-02T04:30:08.867Z,1007.8
2022-11-02T04:31:11.458Z,1007.9
2022-11-02T04:32:14.455Z,1007.8
2022-11-02T04:33:17.170Z,1007.8
2022-11-02T04:34:19.616Z,1007.9
2022-11-02T04:35:22.123Z,1007.9
2022-11-02T04:36:25.137Z,1007.9
2022-11-02T04:37:28.083Z,1007.8
2022-11-02T04:38:33.902Z,1007.8
2022-11-02T04:39:37.533Z,1007.8
2022-11-02T04:40:40.325Z,1007.8
2022-11-02T04:41:43.454Z,1007.8
2022-11-02T04:42:46.847Z,1007.8
2022-11-02T04:43:49.644Z,1007.8
2022-11-02T04:44:52.381Z,1007.8
2022-11-02T04:45:56.878Z,1007.8
2022-11-02T04:46:59.669Z,1007.8
2022-11-02T04:48:03.393Z,1007.9
2022-11-02T04:49:08.356Z,1007.8
2022-11-02T04:50:10.790Z,1007.8
2022-11-02T04:51:13.598Z,1007.8
2022-11-02T04:52:16.388Z,1007.8
2022-11-02T04:53:18.763Z,1007.7
2022-11-02T04:54:21.907Z,1007.8
2022-11-02T04:55:24.412Z,1007.7
2022-11-02T04:56:27.857Z,1007.7
2022-11-02T04:57:31.050Z,1007.7
2022-11-02T04:58:34.414Z,1007.7
2022-11-02T04:59:36.931Z,1007.7
2022-11-02T05:00:40.222Z,1007.7
2022-11-02T05:01:44.593Z,1007.8
2022-11-02T05:02:48.795Z,1007.7
2022-11-02T05:03:51.737Z,1007.8
2022-11-02T05:04:55.169Z,1007.8
2022-11-02T05:05:58.414Z,1007.8
2022-11-02T05:07:02.383Z,1007.8
2022-11-02T05:08:06.112Z,1007.8
2022-11-02T05:09:10.253Z,1007.8
2022-11-02T05:10:13.410Z,1007.8
2022-11-02T05:11:16.843Z,1007.8
2022-11-02T05:12:22.370Z,1007.8
2022-11-02T05:13:31.678Z,1007.8
2022-11-02T05:14:34.755Z,1007.8
2022-11-02T05:15:37.074Z,1007.8
2022-11-02T05:16:39.728Z,1007.8
2022-11-02T05:17:43.905Z,1007.8
2022-11-02T05:18:46.693Z,1007.8
2022-11-02T05:19:49.565Z,1007.9
2022-11-02T05:20:52.911Z,1007.9
2022-11-02T05:21:55.704Z,1007.9
2022-11-02T05:22:58.232Z,1008
2022-11-02T05:24:01.220Z,1008
2022-11-02T05:25:04.367Z,1008
2022-11-02T05:26:07.464Z,1008
2022-11-02T05:27:10.182Z,1008
2022-11-02T05:28:12.782Z,1007.9
2022-11-02T05:29:16.059Z,1007.9
2022-11-02T05:30:18.927Z,1007.9
2022-11-02T05:31:21.367Z,1007.9
2022-11-02T05:32:24.403Z,1007.9
2022-11-02T05:33:31.326Z,1008
2022-11-02T05:34:33.567Z,1007.9
2022-11-02T05:35:36.300Z,1008
2022-11-02T05:36:39.016Z,1007.9
2022-11-02T05:37:42.167Z,1007.9
2022-11-02T05:38:45.264Z,1007.9
2022-11-02T05:39:50.713Z,1008
2022-11-02T05:40:53.237Z,1007.9
2022-11-02T05:41:56.329Z,1007.9
2022-11-02T05:42:59.211Z,1007.9
2022-11-02T05:44:02.415Z,1007.9
2022-11-02T05:45:05.871Z,1007.8
2022-11-02T05:46:08.864Z,1007.9
2022-11-02T05:47:12.595Z,1007.9
2022-11-02T05:48:15.858Z,1007.9
2022-11-02T05:49:19.952Z,1007.9
2022-11-02T05:50:22.119Z,1007.9
2022-11-02T05:51:24.838Z,1007.9
2022-11-02T05:52:27.428Z,1007.9
2022-11-02T05:53:30.592Z,1007.9
2022-11-02T05:54:33.962Z,1007.9
2022-11-02T05:55:36.766Z,1007.9
2022-11-02T05:56:39.564Z,1007.9
2022-11-02T05:57:42.917Z,1007.9
2022-11-02T05:58:45.800Z,1007.9
2022-11-02T05:59:50.110Z,1007.9
2022-11-02T06:00:53.105Z,1007.9
2022-11-02T06:01:56.543Z,1007.9
2022-11-02T06:03:00.058Z,1007.9
2022-11-02T06:04:04.706Z,1007.9
2022-11-02T06:05:09.420Z,1007.9
2022-11-02T06:06:13.227Z,1007.9
2022-11-02T06:07:15.747Z,1007.9
2022-11-02T06:08:19.172Z,1007.9
2022-11-02T06:09:21.783Z,1007.9
2022-11-02T06:10:24.294Z,1007.9
2022-11-02T06:11:27.118Z,1007.9
2022-11-02T06:12:29.919Z,1007.9
2022-11-02T06:13:33.020Z,1007.9
2022-11-02T06:14:35.915Z,1008
2022-11-02T06:15:38.704Z,1008
2022-11-02T06:16:41.978Z,1008
2022-11-02T06:17:44.156Z,1008
2022-11-02T06:18:48.166Z,1007.9
2022-11-02T06:19:50.905Z,1008
2022-11-02T06:20:55.016Z,1008
2022-11-02T06:21:58.298Z,1008
2022-11-02T06:23:00.809Z,1008
2022-11-02T06:24:05.538Z,1008
2022-11-02T06:25:08.411Z,1008
2022-11-02T06:26:11.408Z,1008
2022-11-02T06:27:14.529Z,1008
2022-11-02T06:28:17.312Z,1008
2022-11-02T06:29:20.731Z,1008
2022-11-02T06:30:23.897Z,1008
2022-11-02T06:31:26.975Z,1008
2022-11-02T06:32:29.946Z,1008
2022-11-02T06:33:33.316Z,1007.9
2022-11-02T06:34:36.668Z,1007.9
2022-11-02T06:35:39.206Z,1007.9
2022-11-02T06:36:43.318Z,1008
2022-11-02T06:37:45.833Z,1007.9
2022-11-02T06:38:48.270Z,1008
2022-11-02T06:39:50.533Z,1008
2022-11-02T06:40:53.810Z,1008
2022-11-02T06:41:57.123Z,1008
2022-11-02T06:43:18.014Z,1008
2022-11-02T06:44:24.650Z,1008
2022-11-02T06:45:27.707Z,1008
2022-11-02T06:46:30.412Z,1008
2022-11-02T06:47:33.214Z,1008
2022-11-02T06:48:36.490Z,1008
2022-11-02T06:49:40.087Z,1008
2022-11-02T06:50:43.232Z,1008
2022-11-02T06:51:47.368Z,1008
2022-11-02T06:52:50.760Z,1008.1
2022-11-02T06:53:54.194Z,1008.1
2022-11-02T06:54:57.384Z,1008.1
2022-11-02T06:56:00.737Z,1008.1
2022-11-02T06:57:03.726Z,1008.1
2022-11-02T06:58:06.548Z,1008.1
2022-11-02T06:59:09.891Z,1008.1
2022-11-02T07:00:16.702Z,1008.1
2022-11-02T07:01:26.625Z,1008.1
2022-11-02T07:02:30.892Z,1008.1
2022-11-02T07:03:34.824Z,1008.1
2022-11-02T07:04:38.007Z,1008.1
2022-11-02T07:05:41.116Z,1008.1
2022-11-02T07:06:43.679Z,1008.1
2022-11-02T07:07:47.859Z,1008.1
2022-11-02T07:08:50.309Z,1008.1
2022-11-02T07:09:53.099Z,1008.1
2022-11-02T07:10:55.695Z,1008.1
2022-11-02T07:11:58.796Z,1008.1
2022-11-02T07:13:02.179Z,1008.1
2022-11-02T07:14:07.718Z,1008.1
2022-11-02T07:15:11.212Z,1008.1
2022-11-02T07:16:14.204Z,1008.1
2022-11-02T07:17:16.369Z,1008.2
2022-11-02T07:18:19.522Z,1008.1
2022-11-02T07:19:22.692Z,1008.2
2022-11-02T07:20:25.965Z,1008.2
2022-11-02T07:21:29.399Z,1008.2
2022-11-02T07:22:32.159Z,1008.2
2022-11-02T07:23:36.337Z,1008.2
2022-11-02T07:24:38.928Z,1008.2
2022-11-02T07:25:42.323Z,1008.2
2022-11-02T07:26:45.310Z,1008.2
2022-11-02T07:27:48.310Z,1008.2
2022-11-02T07:28:59.330Z,1008.3
2022-11-02T07:30:02.353Z,1008.3
2022-11-02T07:31:05.795Z,1008.3
2022-11-02T07:32:08.462Z,1008.3
2022-11-02T07:33:11.530Z,1008.3
2022-11-02T07:34:17.766Z,1008.3
2022-11-02T07:35:20.760Z,1008.4
2022-11-02T07:36:24.189Z,1008.3
2022-11-02T07:37:27.376Z,1008.3
2022-11-02T07:38:30.747Z,1008.3
2022-11-02T07:39:34.953Z,1008.3
2022-11-02T07:40:37.194Z,1008.3
2022-11-02T07:41:39.447Z,1008.3
2022-11-02T07:42:42.265Z,1008.3
2022-11-02T07:43:44.998Z,1008.3
2022-11-02T07:44:48.066Z,1008.3
2022-11-02T07:45:51.421Z,1008.3
2022-11-02T07:46:54.939Z,1008.3
2022-11-02T07:47:58.035Z,1008.3
2022-11-02T07:49:01.778Z,1008.3
2022-11-02T07:50:05.121Z,1008.4
2022-11-02T07:51:08.583Z,1008.3
2022-11-02T07:52:11.771Z,1008.3
2022-11-02T07:53:15.222Z,1008.3
2022-11-02T07:54:18.413Z,1008.3
2022-11-02T07:55:22.570Z,1008.3
2022-11-02T07:56:25.837Z,1008.3
2022-11-02T07:57:28.928Z,1008.3
2022-11-02T07:58:31.746Z,1008.3
2022-11-02T07:59:34.745Z,1008.3
2022-11-02T08:00:37.811Z,1008.3
2022-11-02T08:01:41.251Z,1008.2
2022-11-02T08:02:45.336Z,1008.3
2022-11-02T08:03:48.908Z,1008.2
2022-11-02T08:04:51.635Z,1008.3
2022-11-02T08:05:55.359Z,1008.3
2022-11-02T08:06:58.244Z,1008.3
2022-11-02T08:08:02.565Z,1008.3
2022-11-02T08:09:07.654Z,1008.3
2022-11-02T08:10:10.565Z,1008.3
2022-11-02T08:11:14.701Z,1008.2
2022-11-02T08:12:17.495Z,1008.3
2022-11-02T08:13:20.584Z,1008.2
2022-11-02T08:14:23.286Z,1008.2
2022-11-02T08:15:26.386Z,1008.2
2022-11-02T08:16:29.833Z,1008.2
2022-11-02T08:17:32.742Z,1008.2
2022-11-02T08:18:35.818Z,1008.2
2022-11-02T08:19:38.737Z,1008.2
2022-11-02T08:20:41.822Z,1008.2
2022-11-02T08:21:44.967Z,1008.2
2022-11-02T08:22:48.317Z,1008.3
2022-11-02T08:23:58.603Z,1008.3
2022-11-02T08:25:01.812Z,1008.2
2022-11-02T08:26:05.343Z,1008.2
2022-11-02T08:27:09.603Z,1008.2
2022-11-02T08:28:12.977Z,1008.3
2022-11-02T08:29:16.714Z,1008.2
2022-11-02T08:30:19.797Z,1008.2
2022-11-02T08:31:22.049Z,1008.2
2022-11-02T08:32:25.504Z,1008.2
2022-11-02T08:33:29.218Z,1008.2
2022-11-02T08:34:32.637Z,1008.2
2022-11-02T08:35:35.907Z,1008.2
2022-11-02T08:36:38.709Z,1008.1
2022-11-02T08:37:42.322Z,1008.2
2022-11-02T08:38:45.775Z,1008.2
2022-11-02T08:39:48.368Z,1008.1
2022-11-02T08:40:52.096Z,1008.1
2022-11-02T08:41:54.944Z,1008.1
2022-11-02T08:42:59.057Z,1008.1
2022-11-02T08:44:02.508Z,1008.1
2022-11-02T08:45:06.015Z,1008.1
2022-11-02T08:46:16.964Z,1008.1
2022-11-02T08:47:21.018Z,1008
2022-11-02T08:48:24.476Z,1008.1
2022-11-02T08:49:27.200Z,1008.1
2022-11-02T08:50:30.696Z,1008.1
2022-11-02T08:51:34.081Z,1008.1
2022-11-02T08:52:40.943Z,1008.1
2022-11-02T08:53:51.936Z,1008
2022-11-02T08:54:55.430Z,1008
2022-11-02T08:55:59.082Z,1008
2022-11-02T08:57:02.020Z,1008.1
2022-11-02T08:58:07.109Z,1008.1
2022-11-02T08:59:10.746Z,1008
2022-11-02T09:00:13.925Z,1008
2022-11-02T09:01:17.190Z,1008.1
2022-11-02T09:02:20.212Z,1008
2022-11-02T09:03:27.704Z,1008
2022-11-02T09:04:30.535Z,1008.1
2022-11-02T09:05:33.882Z,1008.1
2022-11-02T09:06:37.251Z,1008
2022-11-02T09:07:40.596Z,1008
2022-11-02T09:08:43.595Z,1008.1
2022-11-02T09:09:47.040Z,1008.1
2022-11-02T09:10:50.495Z,1008.1
2022-11-02T09:11:53.873Z,1008.2
2022-11-02T09:12:56.689Z,1008.1
2022-11-02T09:14:00.979Z,1008.2
2022-11-02T09:15:03.792Z,1008.1
2022-11-02T09:16:06.808Z,1008.2
2022-11-02T09:17:09.609Z,1008.2
2022-11-02T09:18:12.455Z,1008.2
2022-11-02T09:19:15.366Z,1008.2
2022-11-02T09:20:18.240Z,1008.1
2022-11-02T09:21:21.423Z,1008.2
2022-11-02T09:22:24.320Z,1008.2
2022-11-02T09:23:27.133Z,1008.2
2022-11-02T09:24:30.206Z,1008.2
2022-11-02T09:25:32.175Z,1008.3
2022-11-02T09:26:35.601Z,1008.3
2022-11-02T09:27:38.774Z,1008.2
2022-11-02T09:28:41.879Z,1008.2
2022-11-02T09:29:46.065Z,1008.2
2022-11-02T09:30:49.082Z,1008.3
2022-11-02T09:31:51.909Z,1008.2
2022-11-02T09:32:55.085Z,1008.3
2022-11-02T09:33:57.885Z,1008.3
2022-11-02T09:35:01.520Z,1008.2
2022-11-02T09:36:05.269Z,1008.2
2022-11-02T09:37:07.853Z,1008.2
2022-11-02T09:38:10.570Z,1008.3
2022-11-02T09:39:13.635Z,1008.3
2022-11-02T09:40:16.901Z,1008.4
2022-11-02T09:41:20.361Z,1008.3
2022-11-02T09:42:22.870Z,1008.4
2022-11-02T09:43:32.933Z,1008.3
2022-11-02T09:44:35.725Z,1008.4
2022-11-02T09:45:40.415Z,1008.4
2022-11-02T09:46:43.245Z,1008.3
2022-11-02T09:48:19.822Z,1008.4
2022-11-02T09:49:33.747Z,1008.4
2022-11-02T09:50:37.252Z,1008.3
2022-11-02T09:51:40.994Z,1008.3
2022-11-02T09:52:44.346Z,1008.4
2022-11-02T09:53:47.783Z,1008.4
2022-11-02T09:54:51.258Z,1008.4
2022-11-02T09:55:53.855Z,1008.5
2022-11-02T09:56:56.381Z,1008.4
2022-11-02T09:57:59.454Z,1008.4
2022-11-02T09:59:02.083Z,1008.4
2022-11-02T10:00:05.471Z,1008.4
2022-11-02T10:01:09.869Z,1008.4
2022-11-02T10:02:12.948Z,1008.4
2022-11-02T10:03:15.743Z,1008.4
2022-11-02T10:04:19.243Z,1008.4
2022-11-02T10:05:23.013Z,1008.3
2022-11-02T10:06:26.758Z,1008.3
2022-11-02T10:07:29.871Z,1008.4
2022-11-02T10:08:33.324Z,1008.3
2022-11-02T10:09:36.780Z,1008.3
2022-11-02T10:10:39.887Z,1008.3
2022-11-02T10:11:43.101Z,1008.4
2022-11-02T10:12:45.582Z,1008.4
2022-11-02T10:13:55.708Z,1008.4
2022-11-02T10:15:00.655Z,1008.4
2022-11-02T10:16:03.854Z,1008.4
2022-11-02T10:17:08.023Z,1008.4
2022-11-02T10:18:10.455Z,1008.4
2022-11-02T10:19:13.180Z,1008.4
2022-11-02T10:20:17.186Z,1008.4
2022-11-02T10:21:20.729Z,1008.4
2022-11-02T10:22:24.186Z,1008.4
2022-11-02T10:23:27.366Z,1008.4
2022-11-02T10:24:31.091Z,1008.4
2022-11-02T10:25:34.447Z,1008.4
2022-11-02T10:26:37.531Z,1008.4
2022-11-02T10:27:41.132Z,1008.4
2022-11-02T10:28:44.287Z,1008.4
2022-11-02T10:29:48.287Z,1008.5
2022-11-02T10:30:51.380Z,1008.4
2022-11-02T10:31:54.291Z,1008.4
2022-11-02T10:32:58.425Z,1008.4
2022-11-02T10:34:01.529Z,1008.4
2022-11-02T10:35:36.992Z,1008.5
2022-11-02T10:37:22.200Z,1008.4
2022-11-02T10:38:25.008Z,1008.5
2022-11-02T10:39:28.124Z,1008.4
2022-11-02T10:40:30.354Z,1008.5
2022-11-02T10:41:33.170Z,1008.5
2022-11-02T10:42:36.068Z,1008.5
2022-11-02T10:43:38.675Z,1008.5
2022-11-02T10:44:41.861Z,1008.5
2022-11-02T10:45:44.725Z,1008.5
2022-11-02T10:46:47.812Z,1008.5
2022-11-02T10:47:50.559Z,1008.5
2022-11-02T10:48:54.753Z,1008.5
2022-11-02T10:49:57.824Z,1008.5
2022-11-02T10:51:00.918Z,1008.5
2022-11-02T10:52:04.318Z,1008.3
2022-11-02T10:53:40.883Z,1008.5
2022-11-02T10:54:48.230Z,1008.5
2022-11-02T10:55:51.108Z,1008.5
2022-11-02T10:56:54.172Z,1008.6
2022-11-02T10:57:57.264Z,1008.5
2022-11-02T10:59:00.118Z,1008.6
2022-11-02T11:00:03.779Z,1008.6
2022-11-02T11:01:07.065Z,1008.6
2022-11-02T11:02:11.353Z,1008.5
2022-11-02T11:03:13.893Z,1008.5
2022-11-02T11:04:17.989Z,1008.5
2022-11-02T11:05:22.060Z,1008.4
2022-11-02T11:06:25.789Z,1008.5
2022-11-02T11:07:28.800Z,1008.5
2022-11-02T11:08:32.577Z,1008.4
2022-11-02T11:09:36.030Z,1008.5
2022-11-02T11:10:40.005Z,1008.5
2022-11-02T11:11:44.017Z,1008.4
2022-11-02T11:12:46.806Z,1008.5
2022-11-02T11:16:53.686Z,1008.5
2022-11-02T11:20:42.086Z,1008.6
2022-11-02T11:21:45.344Z,1008.6
2022-11-02T11:22:48.134Z,1008.7
2022-11-02T11:23:50.922Z,1008.6
2022-11-02T11:24:54.081Z,1008.6
2022-11-02T11:25:57.530Z,1008.6
2022-11-02T11:27:00.943Z,1008.7
2022-11-02T11:28:05.056Z,1008.6
2022-11-02T11:29:09.476Z,1008.6
2022-11-02T11:30:13.294Z,1008.6
2022-11-02T11:32:01.154Z,1008.6
2022-11-02T11:33:05.155Z,1008.6
2022-11-02T11:34:08.373Z,1008.6
2022-11-02T11:35:11.710Z,1008.6
2022-11-02T11:36:15.755Z,1008.7
2022-11-02T11:37:19.870Z,1008.7
2022-11-02T11:38:22.109Z,1008.7
2022-11-02T11:39:25.818Z,1008.7
2022-11-02T11:40:28.685Z,1008.7
2022-11-02T11:41:31.485Z,1008.7
2022-11-02T11:42:34.118Z,1008.7
2022-11-02T11:43:36.973Z,1008.8
2022-11-02T11:44:39.481Z,1008.7
2022-11-02T11:45:42.084Z,1008.8
2022-11-02T11:46:44.813Z,1008.9
2022-11-02T11:47:48.005Z,1008.9
2022-11-02T11:48:51.202Z,1009.1
2022-11-02T11:50:18.148Z,1009.1
2022-11-02T11:51:35.146Z,1009.2
2022-11-02T11:52:38.583Z,1009.2
2022-11-02T11:53:41.846Z,1009.3
2022-11-02T11:54:44.646Z,1009.3
2022-11-02T11:55:47.368Z,1009.2
2022-11-02T11:56:49.687Z,1009.3
2022-11-02T11:57:52.855Z,1009.2
2022-11-02T11:58:56.653Z,1009.3
2022-11-02T12:00:00.276Z,1009.3
2022-11-02T12:01:10.987Z,1009.2
2022-11-02T12:02:15.488Z,1009.1
2022-11-02T12:03:20.761Z,1009.2
2022-11-02T12:04:24.548Z,1009.2
2022-11-02T12:05:27.640Z,1009.2
2022-11-02T12:06:30.717Z,1009.2
2022-11-02T12:07:34.882Z,1009.2
2022-11-02T12:08:37.963Z,1009.2
2022-11-02T12:09:41.073Z,1009.3
2022-11-02T12:10:44.253Z,1009.2
2022-11-02T12:11:47.682Z,1009.2
2022-11-02T12:12:50.507Z,1009.2
2022-11-02T12:13:54.280Z,1009.1
2022-11-02T12:14:57.713Z,1009.1
2022-11-02T12:16:09.574Z,1009.1
2022-11-02T12:17:12.948Z,1009.2
2022-11-02T12:18:15.824Z,1009.1
2022-11-02T12:19:18.540Z,1009.1
2022-11-02T12:20:21.848Z,1009.1
2022-11-02T12:21:25.179Z,1009.2
2022-11-02T12:22:28.914Z,1009.1
2022-11-02T12:23:33.091Z,1009.2
2022-11-02T12:24:36.250Z,1009.1
2022-11-02T12:25:39.518Z,1009.2
2022-11-02T12:26:42.045Z,1009
2022-11-02T12:27:45.406Z,1009.1
2022-11-02T12:28:48.613Z,1009.1
2022-11-02T12:29:51.861Z,1009.1
2022-11-02T12:30:55.461Z,1009.1
2022-11-02T12:32:01.360Z,1009.1
2022-11-02T12:33:05.192Z,1009.1
2022-11-02T12:34:09.992Z,1009.2
2022-11-02T12:35:30.897Z,1009
2022-11-02T12:36:34.472Z,1009
2022-11-02T12:38:42.749Z,1009.1
2022-11-02T12:39:46.244Z,1009.3
2022-11-02T12:40:50.036Z,1009
2022-11-02T12:41:53.437Z,1009.1
2022-11-02T12:42:56.163Z,1009.1
2022-11-02T12:43:59.155Z,1009.1
2022-11-02T12:45:02.332Z,1009
2022-11-02T12:46:05.720Z,1009.1
2022-11-02T12:47:08.439Z,1009.1
2022-11-02T12:48:11.440Z,1009.3
2022-11-02T12:49:14.627Z,1009.2
2022-11-02T12:50:17.917Z,1009.2
2022-11-02T12:51:20.807Z,1009.3
2022-11-02T12:52:23.913Z,1009.3
2022-11-02T12:53:27.525Z,1009.3
2022-11-02T12:54:31.014Z,1009.3
2022-11-02T12:55:39.075Z,1009.3
2022-11-02T12:56:42.238Z,1009.4
2022-11-02T12:57:44.673Z,1009.3
2022-11-02T12:58:48.020Z,1009.4
2022-11-02T12:59:50.729Z,1009.4
2022-11-02T13:00:53.772Z,1009.3
2022-11-02T13:01:58.069Z,1009.3
2022-11-02T13:03:02.638Z,1009.3
2022-11-02T13:04:07.142Z,1009.4
2022-11-02T13:05:09.673Z,1009.4
2022-11-02T13:06:12.393Z,1009.3
2022-11-02T13:07:15.393Z,1009.4
2022-11-02T13:08:18.798Z,1009.4
2022-11-02T13:09:21.789Z,1009.5
2022-11-02T13:10:25.309Z,1009.5
2022-11-02T13:11:29.169Z,1009.5
2022-11-02T13:12:31.897Z,1009.5
2022-11-02T13:13:34.892Z,1009.5
2022-11-02T13:14:38.100Z,1009.5
2022-11-02T13:15:41.487Z,1009.7
2022-11-02T13:16:44.453Z,1009.7
2022-11-02T13:17:48.179Z,1009.7
2022-11-02T13:18:51.903Z,1009.8
2022-11-02T13:19:54.443Z,1009.7
2022-11-02T13:20:57.514Z,1009.7
2022-11-02T13:22:01.017Z,1009.8
2022-11-02T13:23:04.935Z,1009.8
2022-11-02T13:24:10.178Z,1009.9
2022-11-02T13:25:13.515Z,1010
2022-11-02T13:26:16.947Z,1009.9
2022-11-02T13:27:38.449Z,1010
2022-11-02T13:28:43.307Z,1009.9
2022-11-02T13:29:46.982Z,1010.1
2022-11-02T13:30:49.694Z,1010.1
2022-11-02T13:31:52.844Z,1010.2